createdAt,value
2023-06-06T22:02:10.510Z,20.49
2023-06-06T22:04:37.752Z,20.46
2023-06-06T22:07:05.552Z,20.43
2023-06-06T22:09:32.941Z,20.40
2023-06-06T22:12:00.765Z,20.38
2023-06-06T22:14:28.270Z,20.36
2023-06-06T22:16:55.779Z,20.35
2023-06-06T22:19:23.154Z,20.34
2023-06-06T22:21:50.600Z,20.33
2023-06-06T22:24:18.071Z,20.32
2023-06-06T22:26:45.808Z,20.28
2023-06-06T22:29:13.052Z,20.25
2023-06-06T22:31:40.491Z,20.21
2023-06-06T22:34:07.557Z,20.17
2023-06-06T22:36:34.732Z,20.13
2023-06-06T22:39:02.138Z,20.11
2023-06-06T22:41:29.151Z,20.06
2023-06-06T22:43:56.288Z,20.03
2023-06-06T22:46:23.653Z,19.99
2023-06-06T22:48:50.986Z,19.96
2023-06-06T22:51:18.045Z,19.91
2023-06-06T22:53:46.238Z,19.86
2023-06-06T22:56:13.549Z,19.80
2023-06-06T22:58:40.748Z,19.76
2023-06-06T23:01:07.974Z,19.71
2023-06-06T23:03:36.848Z,19.66
2023-06-06T23:06:04.068Z,19.62
2023-06-06T23:08:31.675Z,19.58
2023-06-06T23:10:58.748Z,19.54
2023-06-06T23:13:25.924Z,19.51
2023-06-06T23:15:54.159Z,19.48
2023-06-06T23:18:21.288Z,19.44
2023-06-06T23:20:48.356Z,19.42
2023-06-06T23:23:15.514Z,19.40
2023-06-06T23:25:42.609Z,19.39
2023-06-06T23:28:09.737Z,19.40
2023-06-06T23:30:37.184Z,19.41
2023-06-06T23:33:04.385Z,19.41
2023-06-06T23:35:31.682Z,19.41
2023-06-06T23:37:59.062Z,19.39
2023-06-06T23:40:26.260Z,19.38
2023-06-06T23:42:53.458Z,19.37
2023-06-06T23:45:20.941Z,19.34
2023-06-06T23:47:48.180Z,19.29
2023-06-06T23:50:15.726Z,19.26
2023-06-06T23:52:43.017Z,19.22
2023-06-06T23:55:10.813Z,19.18
2023-06-06T23:57:37.835Z,19.15
